Terminal Aerodrome Forecast
Issued by NWS

Home | Current Version | Previous Version | Text Only | Print | Product List | Glossary On
Versions: 1 2 3 4 5 6 7 8 9 10 11 12 13 14 15 16 17 18 19 20 21 22 23 24 25 26 27 28 29 30
000
FTAK31 PANC 261224 AAA
TAFAEN
TAF AMD
PAEN 261224Z 2612/2712 15005KT P6SM VCSH FEW050 BKN070
      TEMPO 2612/2614 15010G20KT 5SM -SHRA BR BKN018
     FM262200 21012G20KT P6SM VCSH SCT050 BKN080
      TEMPO 2623/2703 5SM -SHRA BKN025 OVC050
     FM270500 16010KT P6SM VCSH BKN050=

USA.gov is the U.S. government's official web portal to all federal, state and local government web resources and services.